Fairbanks International, AK

8:59 AM AKDT on August 29, 2014 (GMT -0800)
AKDOT Lathrop Street @ 21st Street | Change Station
CLOSE
Current Station
Personal Weather Station
Location: Fairbanks, AK
Elevation: 478 ft
Nearby Weather Stations
Active Advisory: Frost Advisory Active Notice: Record Report

Elev 478 ft 64.83 °N, 147.74 °W | Updated 37 minutes ago

Mostly Cloudy
Mostly Cloudy
49 °F
Feels Like 49 °F
N
0
Wind Variable Wind from SSE
Gusts 2.0 mph

Today
High -- | Low -- °F
--% Chance of Precip.
Yesterday
High -- | Low -- °F
Precip. -- in
6:22 AM 9:19 PM
Waxing Crescent, 15% visible
Pressure 29.53 in
Visibility 10.0 miles
Clouds Scattered Clouds 1000 ft
Mostly Cloudy 3500 ft
Mostly Cloudy 5000 ft
Windchill 49 °F
Dew Point 47 °F
Humidity 95%
Rainfall -999.00 in
Snow Depth Not available.
UV 0 out of 12
Pollen Not available.
Air Quality Not available.
Flu Activity Not available.
METAR PAFA 291653Z 21005KT 10SM SCT010 BKN035 BKN050 11/08 A2952 RMK AO2 RAB1556E09 SLP000 VIS LWR W-N P0001 T01060083

More Conditions Fewer Conditions

Pressure 29.53 in
Visibility 10.0 miles
Clouds Scattered Clouds 1000 ft
Mostly Cloudy 3500 ft
Mostly Cloudy 5000 ft
Windchill 49 °F
Dew Point 47 °F
Humidity 95%
Rainfall -999.00 in
Snow Depth Not available.
UV 0 out of 12
Pollen Not available.
Air Quality Not available.
Flu Activity Not available.
METAR PAFA 291653Z 21005KT 10SM SCT010 BKN035 BKN050 11/08 A2952 RMK AO2 RAB1556E09 SLP000 VIS LWR W-N P0001 T01060083

More Conditions Fewer Conditions

10-Day Weather Forecast

Almanac

Astronomy

Aug. 29, 2014 Rise Set
Actual Time 6:22 AM AKDT 9:19 PM AKDT
Civil Twilight 5:26 AM AKDT 10:15 PM AKDT
Nautical Twilight 4:02 AM AKDT 11:36 PM AKDT
Astronomical Twilight 2:24 AM AKDT 1:19 AM AKDT
Moon 12:04 PM AKDT 9:34 PM AKDT
Length of Visible Light 16h 49m
Length of Day
14h 56m
Tomorrow will be 6m 44s shorter.
Waxing Crescent, 15% of the Moon is Illuminated
Today
Waxing Crescent
Sep 2
First Quarter
Sep 8
Full
Sep 15
Last Quarter
Sep 24
New

Today's Extremes

State Highs State Lows

Community

WunderPhotos

Upload Photos

1,748,285 photos uploaded!

Nearby

Snow Depth

Station Depth Elevation
Little Chena Ridge 1 in 2000 ft
Munson Ridge 1 in 3100 ft
Monument Creek 0 in 1850 ft
Teuchet Creek 0 in 1640 ft
Eagle Summit 1 in 3650 ft

Earthquake Activity

City Distance Mag. Time & Date
No recent earthquake activity has been reported nearby.
Minimum magnitude displayed is 2.5.

Coastal Water Temperatures

Place Temperature
No Stations Reporting

Nearby Weather Stations